createdAt,value
2018-04-07T00:00:14.925Z,14.20
2018-04-07T00:02:43.259Z,14.10
2018-04-07T00:05:11.589Z,14.20
2018-04-07T00:07:40.626Z,14.10
2018-04-07T00:10:09.052Z,14.30
2018-04-07T00:12:37.344Z,14.20
2018-04-07T00:15:06.392Z,14.10
2018-04-07T00:17:34.621Z,14.40
2018-04-07T00:20:03.672Z,14.40
2018-04-07T00:22:31.992Z,14.10
2018-04-07T00:25:00.272Z,14.20
2018-04-07T00:27:28.488Z,14.10
2018-04-07T00:29:57.694Z,14.00
2018-04-07T00:32:26.926Z,14.10
2018-04-07T00:34:55.237Z,14.20
2018-04-07T00:37:25.263Z,14.00
2018-04-07T00:39:53.499Z,14.10
2018-04-07T00:42:21.915Z,14.10
2018-04-07T00:44:50.150Z,14.20
2018-04-07T00:47:18.422Z,13.80
2018-04-07T00:49:46.758Z,13.80
2018-04-07T00:52:15.006Z,14.00
2018-04-07T00:54:43.285Z,14.00
2018-04-07T00:57:11.638Z,14.00
2018-04-07T00:59:40.651Z,14.00
2018-04-07T01:02:08.932Z,14.20
2018-04-07T01:04:37.973Z,14.00
2018-04-07T01:07:11.171Z,14.20
2018-04-07T01:09:41.085Z,14.00
2018-04-07T01:12:09.442Z,13.90
2018-04-07T01:14:37.693Z,14.00
2018-04-07T01:17:05.944Z,14.00
2018-04-07T01:19:35.082Z,14.10
2018-04-07T01:22:03.326Z,13.90
2018-04-07T01:24:32.536Z,14.10
2018-04-07T01:27:01.596Z,14.20
2018-04-07T01:29:29.833Z,13.80
2018-04-07T01:31:58.224Z,13.90
2018-04-07T01:34:26.618Z,13.80
2018-04-07T01:36:54.886Z,13.90
2018-04-07T01:39:23.154Z,14.00
2018-04-07T01:41:51.441Z,13.70
2018-04-07T01:44:20.522Z,13.80
2018-04-07T01:46:49.559Z,13.90
2018-04-07T01:49:18.017Z,13.70
2018-04-07T01:51:46.265Z,13.80
2018-04-07T01:54:15.310Z,13.80
2018-04-07T01:56:43.557Z,13.80
2018-04-07T01:59:13.404Z,13.80
2018-04-07T02:01:42.430Z,13.80
2018-04-07T02:04:10.707Z,13.70
2018-04-07T02:06:39.884Z,13.90
2018-04-07T02:09:08.169Z,13.90
2018-04-07T02:11:36.489Z,14.00
2018-04-07T02:14:04.706Z,13.70
2018-04-07T02:16:33.959Z,13.80
2018-04-07T02:19:02.185Z,13.80
2018-04-07T02:21:30.466Z,14.00
2018-04-07T02:23:59.488Z,13.90
2018-04-07T02:26:27.752Z,14.00
2018-04-07T02:28:56.785Z,13.60
2018-04-07T02:31:25.044Z,13.70
2018-04-07T02:33:53.383Z,13.90
2018-04-07T02:36:21.604Z,13.70
2018-04-07T02:38:50.648Z,13.80
2018-04-07T02:41:18.893Z,13.70
2018-04-07T02:43:47.198Z,13.70
2018-04-07T02:46:15.449Z,13.80
2018-04-07T02:48:43.709Z,13.80
2018-04-07T02:51:12.066Z,13.70
2018-04-07T02:53:40.287Z,13.50
2018-04-07T02:56:08.567Z,13.70
2018-04-07T02:58:36.841Z,13.80
2018-04-07T03:01:05.826Z,13.70
2018-04-07T03:03:34.949Z,13.50
2018-04-07T03:06:04.202Z,13.60
2018-04-07T03:08:34.063Z,13.50
2018-04-07T03:11:03.523Z,13.50
2018-04-07T03:13:33.280Z,13.30
2018-04-07T03:16:01.542Z,13.30
2018-04-07T03:18:30.716Z,13.50
2018-04-07T03:20:58.955Z,13.20
2018-04-07T03:23:28.311Z,13.40
2018-04-07T03:25:56.539Z,13.70
2018-04-07T03:28:24.786Z,13.40
2018-04-07T03:30:53.925Z,13.60
2018-04-07T03:33:22.172Z,13.60
2018-04-07T03:35:51.447Z,13.40
2018-04-07T03:38:19.693Z,13.30
2018-04-07T03:40:47.989Z,13.40
2018-04-07T03:43:17.008Z,13.60
2018-04-07T03:45:45.285Z,13.40
2018-04-07T03:48:14.321Z,13.30
2018-04-07T03:50:42.571Z,13.50
2018-04-07T03:53:10.830Z,13.50
2018-04-07T03:55:39.109Z,13.70
2018-04-07T03:58:07.390Z,13.60
2018-04-07T04:00:36.605Z,13.60
2018-04-07T04:03:04.894Z,13.50
2018-04-07T04:05:33.273Z,13.60
2018-04-07T04:08:01.551Z,13.50
2018-04-07T04:10:29.806Z,13.50
2018-04-07T04:12:58.060Z,13.30
2018-04-07T04:15:26.282Z,13.40
2018-04-07T04:17:56.873Z,13.30
2018-04-07T04:20:25.166Z,13.60
2018-04-07T04:22:54.306Z,13.30
2018-04-07T04:25:22.621Z,13.30
2018-04-07T04:27:51.645Z,13.40
2018-04-07T04:30:19.921Z,13.20
2018-04-07T04:32:48.196Z,13.30
2018-04-07T04:35:16.481Z,13.40
2018-04-07T04:37:45.522Z,13.40
2018-04-07T04:40:14.582Z,13.50
2018-04-07T04:42:42.841Z,13.40
2018-04-07T04:45:11.982Z,13.50
2018-04-07T04:47:40.233Z,13.60
2018-04-07T04:50:08.566Z,13.70
2018-04-07T04:52:36.797Z,13.50
2018-04-07T04:55:05.133Z,13.50
2018-04-07T04:57:33.351Z,13.40
2018-04-07T05:00:01.623Z,13.50
2018-04-07T05:02:29.971Z,13.60
2018-04-07T05:04:59.776Z,13.80
2018-04-07T05:07:28.065Z,13.80
2018-04-07T05:09:57.241Z,13.70
2018-04-07T05:12:26.430Z,13.60
2018-04-07T05:14:54.699Z,13.70
2018-04-07T05:17:22.996Z,13.70
2018-04-07T05:19:51.230Z,13.60
2018-04-07T05:22:20.695Z,13.70
2018-04-07T05:24:49.073Z,13.60
2018-04-07T05:27:17.422Z,13.80
2018-04-07T05:29:45.663Z,13.80
2018-04-07T05:32:15.422Z,14.00
2018-04-07T05:34:43.675Z,13.80
2018-04-07T05:37:12.798Z,13.90
2018-04-07T05:39:41.026Z,13.60
2018-04-07T05:42:09.331Z,13.90
2018-04-07T05:44:38.445Z,13.90
2018-04-07T05:47:06.712Z,14.00
2018-04-07T05:49:34.980Z,13.80
2018-04-07T05:52:03.269Z,14.10
2018-04-07T05:54:31.592Z,14.20
2018-04-07T05:56:59.822Z,13.80
2018-04-07T05:59:28.064Z,14.20
2018-04-07T06:01:57.266Z,14.30
2018-04-07T06:04:26.215Z,14.30
2018-04-07T06:06:55.243Z,14.50
2018-04-07T06:09:23.521Z,14.40
2018-04-07T06:11:51.752Z,14.50
2018-04-07T06:14:20.051Z,14.40
2018-04-07T06:16:48.280Z,14.70
2018-04-07T06:19:16.674Z,14.60
2018-04-07T06:21:46.978Z,14.40
2018-04-07T06:24:15.230Z,14.70
2018-04-07T06:26:44.346Z,14.60
2018-04-07T06:29:13.329Z,14.50
2018-04-07T06:31:42.954Z,14.90
2018-04-07T06:34:11.229Z,14.80
2018-04-07T06:36:40.224Z,14.90
2018-04-07T06:39:10.232Z,14.80
2018-04-07T06:41:40.042Z,14.90
2018-04-07T06:44:09.128Z,14.90
2018-04-07T06:46:37.355Z,14.70
2018-04-07T06:49:06.430Z,14.90
2018-04-07T06:51:35.504Z,15.00
2018-04-07T06:54:04.815Z,15.10
2018-04-07T06:56:33.085Z,15.30
2018-04-07T06:59:01.326Z,15.20
2018-04-07T07:01:30.313Z,15.40
2018-04-07T07:03:59.453Z,15.10
2018-04-07T07:06:27.787Z,15.40
2018-04-07T07:08:56.051Z,15.40
2018-04-07T07:11:24.301Z,15.40
2018-04-07T07:13:52.570Z,15.70
2018-04-07T07:16:21.666Z,15.60
2018-04-07T07:18:49.958Z,15.90
2018-04-07T07:21:18.198Z,15.90
2018-04-07T07:23:46.459Z,15.70
2018-04-07T07:26:15.541Z,16.10
2018-04-07T07:28:44.553Z,16.00
2018-04-07T07:31:13.625Z,16.20
2018-04-07T07:33:41.863Z,16.10
2018-04-07T07:36:10.144Z,16.10
2018-04-07T07:38:38.450Z,16.20
2018-04-07T07:41:06.733Z,16.30
2018-04-07T07:43:35.032Z,16.30
2018-04-07T07:46:05.003Z,16.40
2018-04-07T07:48:33.270Z,16.50
2018-04-07T07:51:02.323Z,16.50
2018-04-07T07:53:31.144Z,16.70
2018-04-07T07:56:00.181Z,16.70
2018-04-07T07:58:28.438Z,16.80
2018-04-07T08:00:56.694Z,16.70
2018-04-07T08:03:25.736Z,16.90
2018-04-07T08:05:54.006Z,16.80
2018-04-07T08:08:23.043Z,16.80
2018-04-07T08:10:52.786Z,16.80
2018-04-07T08:13:21.811Z,16.80
2018-04-07T08:15:50.056Z,17.00
2018-04-07T08:18:19.051Z,17.00
2018-04-07T08:20:47.366Z,16.80
2018-04-07T08:23:15.821Z,17.40
2018-04-07T08:25:44.822Z,17.20
2018-04-07T08:28:13.866Z,17.60
2018-04-07T08:30:42.178Z,17.30
2018-04-07T08:33:12.437Z,17.70
2018-04-07T08:35:41.458Z,17.60
2018-04-07T08:38:09.718Z,17.60
2018-04-07T08:40:39.697Z,17.90
2018-04-07T08:43:07.952Z,17.50
2018-04-07T08:45:36.180Z,17.90
2018-04-07T08:48:05.224Z,18.00
2018-04-07T08:50:35.021Z,18.30
2018-04-07T08:53:03.282Z,18.00
2018-04-07T08:55:32.813Z,18.30
2018-04-07T08:58:01.841Z,18.20
2018-04-07T09:00:30.129Z,18.30
2018-04-07T09:02:58.381Z,18.30
2018-04-07T09:05:26.709Z,18.30
2018-04-07T09:07:54.991Z,18.50
2018-04-07T09:10:23.294Z,18.60
2018-04-07T09:12:52.350Z,18.60
2018-04-07T09:15:20.650Z,18.70
2018-04-07T09:17:49.706Z,18.90
2018-04-07T09:20:18.677Z,18.80
2018-04-07T09:22:46.996Z,18.90
2018-04-07T09:25:15.231Z,18.90
2018-04-07T09:27:44.380Z,19.00
2018-04-07T09:30:13.308Z,19.40
2018-04-07T09:32:41.742Z,19.00
2018-04-07T09:35:10.837Z,19.50
2018-04-07T09:37:39.078Z,19.50
2018-04-07T09:40:08.118Z,19.60
2018-04-07T09:42:36.363Z,19.60
2018-04-07T09:45:05.386Z,19.80
2018-04-07T09:47:33.641Z,19.50
2018-04-07T09:50:02.706Z,20.00
2018-04-07T09:52:30.941Z,20.00
2018-04-07T09:54:59.207Z,20.20
2018-04-07T09:57:28.240Z,20.10
2018-04-07T09:59:56.501Z,20.00
2018-04-07T10:02:24.766Z,20.20
2018-04-07T10:04:53.127Z,20.40
2018-04-07T10:07:21.400Z,20.50
2018-04-07T10:09:49.647Z,20.60
2018-04-07T10:12:17.886Z,20.50
2018-04-07T10:14:46.948Z,20.90
2018-04-07T10:17:15.222Z,20.80
2018-04-07T10:19:43.606Z,20.90
2018-04-07T10:22:11.933Z,21.00
2018-04-07T10:24:40.161Z,21.10
2018-04-07T10:27:09.240Z,21.10
2018-04-07T10:29:37.493Z,21.10
2018-04-07T10:32:06.504Z,21.30
2018-04-07T10:34:34.879Z,21.30
2018-04-07T10:37:03.913Z,21.30
2018-04-07T10:39:33.115Z,21.30
2018-04-07T10:42:01.358Z,21.40
2018-04-07T10:44:30.356Z,21.40
2018-04-07T10:46:59.395Z,21.50
2018-04-07T10:49:27.705Z,21.50
2018-04-07T10:51:56.007Z,21.50
2018-04-07T10:54:25.900Z,21.60
2018-04-07T10:56:54.140Z,21.60
2018-04-07T10:59:23.111Z,21.70
2018-04-07T11:01:51.537Z,21.80
2018-04-07T11:04:19.804Z,21.90
2018-04-07T11:06:48.056Z,21.90
2018-04-07T11:09:16.378Z,21.90
2018-04-07T11:11:44.696Z,22.00
2018-04-07T11:14:12.966Z,22.00
2018-04-07T11:16:41.233Z,22.00
2018-04-07T11:19:09.522Z,22.10
2018-04-07T11:21:37.756Z,22.20
2018-04-07T11:24:06.041Z,22.20
2018-04-07T11:26:34.304Z,22.20
2018-04-07T11:29:03.322Z,22.30
2018-04-07T11:31:31.610Z,22.30
2018-04-07T11:33:59.854Z,22.40
2018-04-07T11:36:28.118Z,22.40
2018-04-07T11:38:57.365Z,22.50
2018-04-07T11:41:25.614Z,22.50
2018-04-07T11:43:54.618Z,22.60
2018-04-07T11:46:22.874Z,22.60
2018-04-07T11:48:51.144Z,22.70
2018-04-07T11:51:19.395Z,22.70
2018-04-07T11:53:47.793Z,22.70
2018-04-07T11:56:16.052Z,22.80
2018-04-07T11:58:44.285Z,22.80
2018-04-07T12:01:13.313Z,22.90
2018-04-07T12:03:41.559Z,22.80
2018-04-07T12:06:10.680Z,22.90
2018-04-07T12:08:39.741Z,22.90
2018-04-07T12:11:07.972Z,22.90
2018-04-07T12:13:36.361Z,23.00
2018-04-07T12:16:04.687Z,23.10
2018-04-07T12:18:33.554Z,23.20
2018-04-07T12:21:01.823Z,23.20
2018-04-07T12:23:30.093Z,23.30
2018-04-07T12:25:58.362Z,23.30
2018-04-07T12:28:27.349Z,23.40
2018-04-07T12:30:56.552Z,23.30
2018-04-07T12:33:25.600Z,23.40
2018-04-07T12:35:53.870Z,23.40
2018-04-07T12:38:22.130Z,23.40
2018-04-07T12:40:50.467Z,23.40
2018-04-07T12:43:18.701Z,23.50
2018-04-07T12:45:46.954Z,23.60
2018-04-07T12:48:15.991Z,23.70
2018-04-07T12:50:44.306Z,23.70
2018-04-07T12:53:12.571Z,23.70
2018-04-07T12:55:40.819Z,23.70
2018-04-07T12:58:09.988Z,23.70
2018-04-07T13:00:39.618Z,23.80
2018-04-07T13:03:08.833Z,23.80
2018-04-07T13:05:37.916Z,23.90
2018-04-07T13:08:06.219Z,23.90
2018-04-07T13:10:34.498Z,23.90
2018-04-07T13:13:02.732Z,24.00
2018-04-07T13:15:31.027Z,23.90
2018-04-07T13:17:59.278Z,24.00
2018-04-07T13:20:28.004Z,24.00
2018-04-07T13:22:57.133Z,24.10
2018-04-07T13:25:25.442Z,24.10
2018-04-07T13:27:53.700Z,24.20
2018-04-07T13:30:22.834Z,24.20
2018-04-07T13:32:51.072Z,24.20
2018-04-07T13:35:19.333Z,24.20
2018-04-07T13:37:47.606Z,24.10
2018-04-07T13:40:15.867Z,24.20
2018-04-07T13:42:44.214Z,24.10
2018-04-07T13:45:12.476Z,24.10
2018-04-07T13:47:40.756Z,24.10
2018-04-07T13:50:09.024Z,24.20
2018-04-07T13:52:38.076Z,24.10
2018-04-07T13:55:06.360Z,24.10
2018-04-07T13:57:34.733Z,24.20
2018-04-07T14:00:06.546Z,24.20
2018-04-07T14:02:36.908Z,24.20
2018-04-07T14:05:05.195Z,24.20
2018-04-07T14:07:33.433Z,24.30
2018-04-07T14:10:01.697Z,24.20
2018-04-07T14:12:30.734Z,24.20
2018-04-07T14:14:59.106Z,24.20
2018-04-07T14:17:27.373Z,24.20
2018-04-07T14:19:55.655Z,24.20
2018-04-07T14:22:24.720Z,24.20
2018-04-07T14:24:52.939Z,24.20
2018-04-07T14:27:21.198Z,24.20
2018-04-07T14:29:50.396Z,24.20
2018-04-07T14:32:19.412Z,24.20
2018-04-07T14:34:47.661Z,24.20
2018-04-07T14:37:15.938Z,24.20
2018-04-07T14:39:44.412Z,24.20
2018-04-07T14:42:12.661Z,24.30
2018-04-07T14:44:40.915Z,24.30
2018-04-07T14:47:09.162Z,24.30
2018-04-07T14:49:38.261Z,24.40
2018-04-07T14:52:06.533Z,24.40
2018-04-07T14:54:34.866Z,24.30
2018-04-07T14:57:03.113Z,24.40
2018-04-07T14:59:32.200Z,24.40
2018-04-07T15:02:04.564Z,24.30
2018-04-07T15:04:32.795Z,24.30
2018-04-07T15:07:01.124Z,24.40
2018-04-07T15:09:29.360Z,24.30
2018-04-07T15:11:57.652Z,24.40
2018-04-07T15:14:25.928Z,24.40
2018-04-07T15:16:54.177Z,24.40
2018-04-07T15:19:23.817Z,24.40
2018-04-07T15:21:52.067Z,24.30
2018-04-07T15:24:21.223Z,24.40
2018-04-07T15:26:50.386Z,24.40
2018-04-07T15:29:19.405Z,24.40
2018-04-07T15:31:47.695Z,24.40
2018-04-07T15:34:15.946Z,24.50
2018-04-07T15:36:44.980Z,24.50
2018-04-07T15:39:13.241Z,24.50
2018-04-07T15:41:42.315Z,24.50
2018-04-07T15:44:10.558Z,24.50
2018-04-07T15:46:38.822Z,24.50
2018-04-07T15:49:07.098Z,24.40
2018-04-07T15:51:35.356Z,24.40
2018-04-07T15:54:03.606Z,24.50
2018-04-07T15:56:32.746Z,24.40
2018-04-07T15:59:01.672Z,24.40
2018-04-07T16:01:29.900Z,24.40
2018-04-07T16:03:58.163Z,24.30
2018-04-07T16:06:28.383Z,24.20
2018-04-07T16:08:56.795Z,24.20
2018-04-07T16:11:25.136Z,24.20
2018-04-07T16:13:54.245Z,24.20
2018-04-07T16:16:22.505Z,24.20
2018-04-07T16:18:50.958Z,24.20
2018-04-07T16:21:19.246Z,24.20
2018-04-07T16:23:47.536Z,24.20
2018-04-07T16:26:15.852Z,24.20
2018-04-07T16:28:44.898Z,24.10
2018-04-07T16:31:13.169Z,24.10
2018-04-07T16:33:42.398Z,24.10
2018-04-07T16:36:10.660Z,24.10
2018-04-07T16:38:39.769Z,24.10
2018-04-07T16:41:08.038Z,24.10
2018-04-07T16:43:36.279Z,24.10
2018-04-07T16:46:05.480Z,24.10
2018-04-07T16:48:34.660Z,24.20
2018-04-07T16:51:02.889Z,24.10
2018-04-07T16:53:31.157Z,24.10
2018-04-07T16:55:59.410Z,24.00
2018-04-07T16:58:27.685Z,24.00
2018-04-07T17:00:55.954Z,24.00
2018-04-07T17:03:25.122Z,24.00
2018-04-07T17:05:53.390Z,24.00
2018-04-07T17:08:21.647Z,24.00
2018-04-07T17:10:50.717Z,24.00
2018-04-07T17:13:20.487Z,23.90
2018-04-07T17:15:48.729Z,23.90
2018-04-07T17:18:17.815Z,23.80
2018-04-07T17:20:46.035Z,23.80
2018-04-07T17:23:15.026Z,23.70
2018-04-07T17:25:43.273Z,23.60
2018-04-07T17:28:11.517Z,23.70
2018-04-07T17:30:39.934Z,23.70
2018-04-07T17:33:08.171Z,23.70
2018-04-07T17:35:36.437Z,23.70
2018-04-07T17:38:05.456Z,23.70
2018-04-07T17:40:33.769Z,23.70
2018-04-07T17:43:02.154Z,23.70
2018-04-07T17:45:30.398Z,23.70
2018-04-07T17:47:58.682Z,23.70
2018-04-07T17:50:26.991Z,23.70
2018-04-07T17:52:56.077Z,23.60
2018-04-07T17:55:24.374Z,23.60
2018-04-07T17:57:53.083Z,23.60
2018-04-07T18:00:22.147Z,23.50
2018-04-07T18:02:50.419Z,23.50
2018-04-07T18:05:18.785Z,23.40
2018-04-07T18:07:47.053Z,23.30
2018-04-07T18:10:15.350Z,23.30
2018-04-07T18:12:43.622Z,23.20
2018-04-07T18:15:13.052Z,23.20
2018-04-07T18:17:41.331Z,23.10
2018-04-07T18:20:09.692Z,23.00
2018-04-07T18:22:38.708Z,22.90
2018-04-07T18:25:07.100Z,22.90
2018-04-07T18:27:35.298Z,22.90
2018-04-07T18:30:03.617Z,22.90
2018-04-07T18:32:32.626Z,22.80
2018-04-07T18:35:00.900Z,22.80
2018-04-07T18:37:29.350Z,22.80
2018-04-07T18:39:57.600Z,22.80
2018-04-07T18:42:25.883Z,22.80
2018-04-07T18:44:54.117Z,22.80
2018-04-07T18:47:22.400Z,22.70
2018-04-07T18:49:51.402Z,22.80
2018-04-07T18:52:19.693Z,22.70
2018-04-07T18:54:47.964Z,22.70
2018-04-07T18:57:16.232Z,22.60
2018-04-07T18:59:45.328Z,22.50
2018-04-07T19:02:13.692Z,22.60
2018-04-07T19:04:42.043Z,22.50
2018-04-07T19:07:10.398Z,22.50
2018-04-07T19:09:38.666Z,22.50
2018-04-07T19:12:07.083Z,22.40
2018-04-07T19:14:35.304Z,22.30
2018-04-07T19:17:03.680Z,22.20
2018-04-07T19:19:32.626Z,22.20
2018-04-07T19:22:00.899Z,22.20
2018-04-07T19:24:29.163Z,22.10
2018-04-07T19:26:58.193Z,22.00
2018-04-07T19:29:26.510Z,22.00
2018-04-07T19:31:54.718Z,22.00
2018-04-07T19:34:23.781Z,21.90
2018-04-07T19:36:52.920Z,21.90
2018-04-07T19:39:22.055Z,21.80
2018-04-07T19:41:50.376Z,21.80
2018-04-07T19:44:18.610Z,21.80
2018-04-07T19:46:46.867Z,21.80
2018-04-07T19:49:15.752Z,21.80
2018-04-07T19:51:44.026Z,21.70
2018-04-07T19:54:12.271Z,21.60
2018-04-07T19:56:41.397Z,21.60
2018-04-07T19:59:09.626Z,21.50
2018-04-07T20:01:37.945Z,21.50
2018-04-07T20:04:06.209Z,21.40
2018-04-07T20:06:34.477Z,21.30
2018-04-07T20:09:02.767Z,21.30
2018-04-07T20:11:31.032Z,21.20
2018-04-07T20:14:00.660Z,21.10
2018-04-07T20:16:29.071Z,21.10
2018-04-07T20:18:58.911Z,21.10
2018-04-07T20:21:28.015Z,21.00
2018-04-07T20:23:57.221Z,21.00
2018-04-07T20:26:25.561Z,20.90
2018-04-07T20:28:53.854Z,20.90
2018-04-07T20:31:22.177Z,20.80
2018-04-07T20:33:50.506Z,20.80
2018-04-07T20:36:20.025Z,20.80
2018-04-07T20:38:48.232Z,20.70
2018-04-07T20:41:16.501Z,20.70
2018-04-07T20:43:45.549Z,20.70
2018-04-07T20:46:13.785Z,20.70
2018-04-07T20:48:42.102Z,20.60
2018-04-07T20:51:10.363Z,20.60
2018-04-07T20:53:38.664Z,20.60
2018-04-07T20:56:06.989Z,20.60
2018-04-07T20:58:36.895Z,20.40
2018-04-07T21:01:05.177Z,20.60
2018-04-07T21:03:33.468Z,20.60
2018-04-07T21:06:01.698Z,20.50
2018-04-07T21:08:30.024Z,20.50
2018-04-07T21:10:58.315Z,20.50
2018-04-07T21:13:26.586Z,20.50
2018-04-07T21:15:54.824Z,20.10
2018-04-07T21:18:23.108Z,20.30
2018-04-07T21:20:51.497Z,20.30
2018-04-07T21:23:19.775Z,20.10
2018-04-07T21:25:48.108Z,20.10
2018-04-07T21:28:17.112Z,19.90
2018-04-07T21:30:46.139Z,19.90
2018-04-07T21:33:14.466Z,19.80
2018-04-07T21:35:43.544Z,19.90
2018-04-07T21:38:11.822Z,19.70
2018-04-07T21:40:40.091Z,19.80
2018-04-07T21:43:08.336Z,19.70
2018-04-07T21:45:37.383Z,19.50
2018-04-07T21:48:05.681Z,19.60
2018-04-07T21:50:33.995Z,19.70
2018-04-07T21:53:03.080Z,19.60
2018-04-07T21:55:31.929Z,19.50
2018-04-07T21:58:00.194Z,19.50
2018-04-07T22:00:28.463Z,19.40
2018-04-07T22:02:56.758Z,19.30
2018-04-07T22:05:25.165Z,19.30
2018-04-07T22:07:53.575Z,19.10
2018-04-07T22:10:22.629Z,19.20
2018-04-07T22:12:50.898Z,19.10
2018-04-07T22:15:19.121Z,19.10
2018-04-07T22:17:47.403Z,19.10
2018-04-07T22:20:15.697Z,19.00
2018-04-07T22:22:47.345Z,19.00
2018-04-07T22:25:16.365Z,18.90
2018-04-07T22:27:44.641Z,18.90
2018-04-07T22:30:13.731Z,18.80
2018-04-07T22:32:41.934Z,18.70
2018-04-07T22:35:10.979Z,18.80
2018-04-07T22:37:39.205Z,19.00
2018-04-07T22:40:08.253Z,18.60
2018-04-07T22:42:36.931Z,18.70
2018-04-07T22:45:05.177Z,18.60
2018-04-07T22:47:34.184Z,18.50
2018-04-07T22:50:02.460Z,18.50
2018-04-07T22:52:30.752Z,18.70
2018-04-07T22:54:59.079Z,18.40
2018-04-07T22:57:27.327Z,18.40
2018-04-07T22:59:55.569Z,18.50
2018-04-07T23:02:24.620Z,18.40
2018-04-07T23:04:52.891Z,18.20
2018-04-07T23:07:21.253Z,18.40
2018-04-07T23:09:50.294Z,18.50
2018-04-07T23:12:18.616Z,18.40
2018-04-07T23:14:47.020Z,18.60
2018-04-07T23:17:16.098Z,18.40
2018-04-07T23:19:47.326Z,18.30
2018-04-07T23:22:15.784Z,18.20
2018-04-07T23:24:44.926Z,18.00
2018-04-07T23:27:14.637Z,18.20
2018-04-07T23:29:43.663Z,18.00
2018-04-07T23:32:13.393Z,18.00
2018-04-07T23:34:41.674Z,18.00
2018-04-07T23:37:10.919Z,18.10
2018-04-07T23:39:40.660Z,18.30
2018-04-07T23:42:08.945Z,18.10
2018-04-07T23:44:37.183Z,18.20
2018-04-07T23:47:05.466Z,18.10
2018-04-07T23:49:34.716Z,18.20
2018-04-07T23:52:02.951Z,18.10
2018-04-07T23:54:32.017Z,18.20
2018-04-07T23:57:00.275Z,18.20
2018-04-07T23:59:28.520Z,18.40
